sensor_id;sensor_type;location;lat;lon;timestamp;P1;durP1;ratioP1;P2;durP2;ratioP2
45578;SDS011;31293;51.390;12.254;2023-08-31T00:01:35;1.38;;;0.20;;
45578;SDS011;31293;51.390;12.254;2023-08-31T00:03:37;0.30;;;0.20;;
45578;SDS011;31293;51.390;12.254;2023-08-31T00:05:43;0.47;;;0.30;;
45578;SDS011;31293;51.390;12.254;2023-08-31T00:07:45;0.43;;;0.28;;
45578;SDS011;31293;51.390;12.254;2023-08-31T00:09:47;0.55;;;0.20;;
45578;SDS011;31293;51.390;12.254;2023-08-31T00:11:49;0.95;;;0.30;;
45578;SDS011;31293;51.390;12.254;2023-08-31T00:13:51;0.75;;;0.40;;
45578;SDS011;31293;51.390;12.254;2023-08-31T00:15:54;0.30;;;0.22;;
45578;SDS011;31293;51.390;12.254;2023-08-31T00:17:58;0.60;;;0.30;;
45578;SDS011;31293;51.390;12.254;2023-08-31T00:20:00;0.40;;;0.22;;
45578;SDS011;31293;51.390;12.254;2023-08-31T00:22:03;0.65;;;0.20;;
45578;SDS011;31293;51.390;12.254;2023-08-31T00:24:05;1.60;;;0.50;;
45578;SDS011;31293;51.390;12.254;2023-08-31T00:26:08;0.88;;;0.40;;
45578;SDS011;31293;51.390;12.254;2023-08-31T00:28:10;0.60;;;0.30;;
45578;SDS011;31293;51.390;12.254;2023-08-31T00:30:12;0.47;;;0.30;;
45578;SDS011;31293;51.390;12.254;2023-08-31T00:32:17;0.75;;;0.60;;
45578;SDS011;31293;51.390;12.254;2023-08-31T00:34:24;0.52;;;0.20;;
45578;SDS011;31293;51.390;12.254;2023-08-31T00:36:27;1.38;;;0.35;;
45578;SDS011;31293;51.390;12.254;2023-08-31T00:38:29;0.65;;;0.30;;
45578;SDS011;31293;51.390;12.254;2023-08-31T00:40:32;1.00;;;0.30;;
45578;SDS011;31293;51.390;12.254;2023-08-31T00:42:38;0.30;;;0.20;;
45578;SDS011;31293;51.390;12.254;2023-08-31T00:44:40;0.50;;;0.22;;
45578;SDS011;31293;51.390;12.254;2023-08-31T00:46:42;1.27;;;0.60;;
45578;SDS011;31293;51.390;12.254;2023-08-31T00:48:44;0.60;;;0.35;;
45578;SDS011;31293;51.390;12.254;2023-08-31T00:50:46;0.30;;;0.20;;
45578;SDS011;31293;51.390;12.254;2023-08-31T00:52:49;0.40;;;0.30;;
45578;SDS011;31293;51.390;12.254;2023-08-31T00:54:51;0.47;;;0.30;;
45578;SDS011;31293;51.390;12.254;2023-08-31T00:56:54;0.75;;;0.40;;
45578;SDS011;31293;51.390;12.254;2023-08-31T00:58:56;0.45;;;0.30;;
45578;SDS011;31293;51.390;12.254;2023-08-31T01:01:09;0.38;;;0.20;;
45578;SDS011;31293;51.390;12.254;2023-08-31T01:03:31;0.35;;;0.20;;
45578;SDS011;31293;51.390;12.254;2023-08-31T01:08:29;0.40;;;0.30;;
45578;SDS011;31293;51.390;12.254;2023-08-31T01:13:25;1.02;;;0.47;;
45578;SDS011;31293;51.390;12.254;2023-08-31T01:15:32;0.65;;;0.30;;
45578;SDS011;31293;51.390;12.254;2023-08-31T01:17:37;0.52;;;0.38;;
45578;SDS011;31293;51.390;12.254;2023-08-31T01:19:48;0.40;;;0.20;;
45578;SDS011;31293;51.390;12.254;2023-08-31T01:21:52;0.30;;;0.20;;
45578;SDS011;31293;51.390;12.254;2023-08-31T01:23:59;1.02;;;0.50;;
45578;SDS011;31293;51.390;12.254;2023-08-31T01:26:01;1.48;;;0.30;;
45578;SDS011;31293;51.390;12.254;2023-08-31T01:28:03;0.43;;;0.40;;
45578;SDS011;31293;51.390;12.254;2023-08-31T01:30:06;1.05;;;0.38;;
45578;SDS011;31293;51.390;12.254;2023-08-31T01:32:09;0.57;;;0.30;;
45578;SDS011;31293;51.390;12.254;2023-08-31T01:34:11;0.50;;;0.35;;
45578;SDS011;31293;51.390;12.254;2023-08-31T01:36:28;0.90;;;0.32;;
45578;SDS011;31293;51.390;12.254;2023-08-31T01:38:33;0.50;;;0.50;;
45578;SDS011;31293;51.390;12.254;2023-08-31T01:42:51;1.10;;;0.30;;
45578;SDS011;31293;51.390;12.254;2023-08-31T01:44:55;1.42;;;0.30;;
45578;SDS011;31293;51.390;12.254;2023-08-31T01:47:01;0.65;;;0.47;;
45578;SDS011;31293;51.390;12.254;2023-08-31T01:49:07;0.50;;;0.30;;
45578;SDS011;31293;51.390;12.254;2023-08-31T01:51:11;0.28;;;0.20;;
45578;SDS011;31293;51.390;12.254;2023-08-31T01:53:13;0.43;;;0.30;;
45578;SDS011;31293;51.390;12.254;2023-08-31T01:55:16;0.98;;;0.30;;
45578;SDS011;31293;51.390;12.254;2023-08-31T01:57:18;0.30;;;0.28;;
45578;SDS011;31293;51.390;12.254;2023-08-31T01:59:20;0.75;;;0.40;;
45578;SDS011;31293;51.390;12.254;2023-08-31T02:01:22;0.40;;;0.30;;
45578;SDS011;31293;51.390;12.254;2023-08-31T02:03:24;0.30;;;0.20;;
45578;SDS011;31293;51.390;12.254;2023-08-31T02:05:26;1.23;;;0.35;;
45578;SDS011;31293;51.390;12.254;2023-08-31T02:07:28;0.82;;;0.40;;
45578;SDS011;31293;51.390;12.254;2023-08-31T02:09:30;0.95;;;0.20;;
45578;SDS011;31293;51.390;12.254;2023-08-31T02:11:32;0.50;;;0.30;;
45578;SDS011;31293;51.390;12.254;2023-08-31T02:13:37;0.45;;;0.30;;
45578;SDS011;31293;51.390;12.254;2023-08-31T02:15:39;0.30;;;0.25;;
45578;SDS011;31293;51.390;12.254;2023-08-31T02:17:40;1.77;;;0.40;;
45578;SDS011;31293;51.390;12.254;2023-08-31T02:19:42;0.50;;;0.30;;
45578;SDS011;31293;51.390;12.254;2023-08-31T02:21:44;0.68;;;0.32;;
45578;SDS011;31293;51.390;12.254;2023-08-31T02:23:46;0.50;;;0.30;;
45578;SDS011;31293;51.390;12.254;2023-08-31T02:25:48;0.40;;;0.28;;
45578;SDS011;31293;51.390;12.254;2023-08-31T02:27:49;1.65;;;0.20;;
45578;SDS011;31293;51.390;12.254;2023-08-31T02:29:51;0.32;;;0.20;;
45578;SDS011;31293;51.390;12.254;2023-08-31T02:31:53;0.40;;;0.20;;
45578;SDS011;31293;51.390;12.254;2023-08-31T02:33:55;1.88;;;0.30;;
45578;SDS011;31293;51.390;12.254;2023-08-31T02:35:56;4.65;;;0.20;;
45578;SDS011;31293;51.390;12.254;2023-08-31T02:37:58;0.90;;;0.38;;
45578;SDS011;31293;51.390;12.254;2023-08-31T02:40:00;0.82;;;0.13;;
45578;SDS011;31293;51.390;12.254;2023-08-31T02:42:02;0.47;;;0.20;;
45578;SDS011;31293;51.390;12.254;2023-08-31T02:44:04;0.30;;;0.20;;
45578;SDS011;31293;51.390;12.254;2023-08-31T02:46:07;0.20;;;0.20;;
45578;SDS011;31293;51.390;12.254;2023-08-31T02:48:13;0.20;;;0.17;;
45578;SDS011;31293;51.390;12.254;2023-08-31T02:50:15;0.20;;;0.20;;
45578;SDS011;31293;51.390;12.254;2023-08-31T02:52:17;1.25;;;0.20;;
45578;SDS011;31293;51.390;12.254;2023-08-31T02:54:19;0.30;;;0.30;;
45578;SDS011;31293;51.390;12.254;2023-08-31T02:56:21;0.25;;;0.25;;
45578;SDS011;31293;51.390;12.254;2023-08-31T02:58:23;3.30;;;0.50;;
45578;SDS011;31293;51.390;12.254;2023-08-31T03:00:24;0.65;;;0.40;;
45578;SDS011;31293;51.390;12.254;2023-08-31T03:02:26;0.40;;;0.25;;
45578;SDS011;31293;51.390;12.254;2023-08-31T03:04:28;2.20;;;0.32;;
45578;SDS011;31293;51.390;12.254;2023-08-31T03:06:33;1.60;;;0.35;;
45578;SDS011;31293;51.390;12.254;2023-08-31T03:08:35;1.05;;;0.70;;
45578;SDS011;31293;51.390;12.254;2023-08-31T03:10:38;0.47;;;0.30;;
45578;SDS011;31293;51.390;12.254;2023-08-31T03:12:40;0.80;;;0.40;;
45578;SDS011;31293;51.390;12.254;2023-08-31T03:14:42;0.43;;;0.40;;
45578;SDS011;31293;51.390;12.254;2023-08-31T03:16:44;0.90;;;0.60;;
45578;SDS011;31293;51.390;12.254;2023-08-31T03:18:46;2.05;;;0.73;;
45578;SDS011;31293;51.390;12.254;2023-08-31T03:20:48;0.40;;;0.40;;
45578;SDS011;31293;51.390;12.254;2023-08-31T03:22:50;1.20;;;0.80;;
45578;SDS011;31293;51.390;12.254;2023-08-31T03:24:52;0.88;;;0.65;;
45578;SDS011;31293;51.390;12.254;2023-08-31T03:26:54;2.25;;;1.23;;
45578;SDS011;31293;51.390;12.254;2023-08-31T03:28:56;1.10;;;1.00;;
45578;SDS011;31293;51.390;12.254;2023-08-31T03:30:58;3.97;;;1.05;;
45578;SDS011;31293;51.390;12.254;2023-08-31T03:33:00;1.58;;;0.98;;
45578;SDS011;31293;51.390;12.254;2023-08-31T03:35:02;2.65;;;1.20;;
45578;SDS011;31293;51.390;12.254;2023-08-31T03:37:05;1.33;;;1.23;;
45578;SDS011;31293;51.390;12.254;2023-08-31T03:39:07;2.00;;;1.45;;
45578;SDS011;31293;51.390;12.254;2023-08-31T03:41:08;3.28;;;1.70;;
45578;SDS011;31293;51.390;12.254;2023-08-31T03:43:10;2.17;;;1.08;;
45578;SDS011;31293;51.390;12.254;2023-08-31T03:45:13;2.75;;;2.10;;
45578;SDS011;31293;51.390;12.254;2023-08-31T03:47:15;1.90;;;1.80;;
45578;SDS011;31293;51.390;12.254;2023-08-31T03:49:17;1.48;;;1.38;;
45578;SDS011;31293;51.390;12.254;2023-08-31T03:51:19;2.70;;;1.77;;
45578;SDS011;31293;51.390;12.254;2023-08-31T03:53:21;2.40;;;1.42;;
45578;SDS011;31293;51.390;12.254;2023-08-31T03:55:22;1.48;;;1.38;;
45578;SDS011;31293;51.390;12.254;2023-08-31T03:57:24;2.53;;;2.20;;
45578;SDS011;31293;51.390;12.254;2023-08-31T03:59:26;2.28;;;2.05;;
45578;SDS011;31293;51.390;12.254;2023-08-31T04:01:28;2.63;;;2.42;;
45578;SDS011;31293;51.390;12.254;2023-08-31T04:03:30;2.10;;;1.90;;
45578;SDS011;31293;51.390;12.254;2023-08-31T04:05:33;3.10;;;2.47;;
45578;SDS011;31293;51.390;12.254;2023-08-31T04:07:35;2.45;;;2.25;;
45578;SDS011;31293;51.390;12.254;2023-08-31T04:09:37;2.03;;;1.85;;
45578;SDS011;31293;51.390;12.254;2023-08-31T04:11:38;2.00;;;1.83;;
45578;SDS011;31293;51.390;12.254;2023-08-31T04:13:40;2.28;;;2.15;;
45578;SDS011;31293;51.390;12.254;2023-08-31T04:15:42;3.28;;;2.47;;
45578;SDS011;31293;51.390;12.254;2023-08-31T04:17:44;3.95;;;2.22;;
45578;SDS011;31293;51.390;12.254;2023-08-31T04:19:46;3.80;;;2.30;;
45578;SDS011;31293;51.390;12.254;2023-08-31T04:21:48;1.90;;;1.80;;
45578;SDS011;31293;51.390;12.254;2023-08-31T04:23:50;2.22;;;2.03;;
45578;SDS011;31293;51.390;12.254;2023-08-31T04:25:52;2.88;;;2.22;;
45578;SDS011;31293;51.390;12.254;2023-08-31T04:27:54;2.63;;;2.42;;
45578;SDS011;31293;51.390;12.254;2023-08-31T04:29:58;2.42;;;2.08;;
45578;SDS011;31293;51.390;12.254;2023-08-31T04:32:04;3.08;;;2.72;;
45578;SDS011;31293;51.390;12.254;2023-08-31T04:34:06;2.42;;;2.22;;
45578;SDS011;31293;51.390;12.254;2023-08-31T04:36:08;2.95;;;2.22;;
45578;SDS011;31293;51.390;12.254;2023-08-31T04:38:10;2.53;;;2.33;;
45578;SDS011;31293;51.390;12.254;2023-08-31T04:40:12;2.75;;;2.55;;
45578;SDS011;31293;51.390;12.254;2023-08-31T04:42:14;2.85;;;2.53;;
45578;SDS011;31293;51.390;12.254;2023-08-31T04:44:18;2.67;;;2.47;;
45578;SDS011;31293;51.390;12.254;2023-08-31T04:46:19;2.83;;;2.47;;
45578;SDS011;31293;51.390;12.254;2023-08-31T04:48:21;2.97;;;2.63;;
45578;SDS011;31293;51.390;12.254;2023-08-31T04:50:23;2.90;;;2.65;;
45578;SDS011;31293;51.390;12.254;2023-08-31T04:52:25;3.35;;;3.05;;
45578;SDS011;31293;51.390;12.254;2023-08-31T04:54:27;5.00;;;3.60;;
45578;SDS011;31293;51.390;12.254;2023-08-31T04:56:29;4.57;;;4.18;;
45578;SDS011;31293;51.390;12.254;2023-08-31T04:58:33;5.03;;;4.63;;
45578;SDS011;31293;51.390;12.254;2023-08-31T05:00:35;4.28;;;3.88;;
45578;SDS011;31293;51.390;12.254;2023-08-31T05:02:37;5.40;;;4.97;;
45578;SDS011;31293;51.390;12.254;2023-08-31T05:04:38;7.13;;;5.05;;
45578;SDS011;31293;51.390;12.254;2023-08-31T05:06:40;4.63;;;4.20;;
45578;SDS011;31293;51.390;12.254;2023-08-31T05:08:42;5.13;;;4.65;;
45578;SDS011;31293;51.390;12.254;2023-08-31T05:10:44;5.82;;;4.72;;
45578;SDS011;31293;51.390;12.254;2023-08-31T05:12:47;4.53;;;4.20;;
45578;SDS011;31293;51.390;12.254;2023-08-31T05:14:49;5.45;;;4.28;;
45578;SDS011;31293;51.390;12.254;2023-08-31T05:16:51;4.15;;;3.85;;
45578;SDS011;31293;51.390;12.254;2023-08-31T05:18:53;5.03;;;4.45;;
45578;SDS011;31293;51.390;12.254;2023-08-31T05:20:55;3.83;;;3.47;;
45578;SDS011;31293;51.390;12.254;2023-08-31T05:22:57;3.92;;;3.53;;
45578;SDS011;31293;51.390;12.254;2023-08-31T05:24:58;4.25;;;3.83;;
45578;SDS011;31293;51.390;12.254;2023-08-31T05:27:01;3.58;;;3.30;;
45578;SDS011;31293;51.390;12.254;2023-08-31T05:29:04;4.65;;;4.03;;
45578;SDS011;31293;51.390;12.254;2023-08-31T05:31:06;3.33;;;3.13;;
45578;SDS011;31293;51.390;12.254;2023-08-31T05:33:08;4.13;;;3.38;;
45578;SDS011;31293;51.390;12.254;2023-08-31T05:35:10;4.13;;;3.83;;
45578;SDS011;31293;51.390;12.254;2023-08-31T05:37:12;4.75;;;4.35;;
45578;SDS011;31293;51.390;12.254;2023-08-31T05:39:15;4.38;;;3.97;;
45578;SDS011;31293;51.390;12.254;2023-08-31T05:41:18;3.85;;;3.50;;
45578;SDS011;31293;51.390;12.254;2023-08-31T05:43:19;5.25;;;3.35;;
45578;SDS011;31293;51.390;12.254;2023-08-31T05:45:21;4.28;;;3.88;;
45578;SDS011;31293;51.390;12.254;2023-08-31T05:47:23;3.65;;;3.42;;
45578;SDS011;31293;51.390;12.254;2023-08-31T05:49:25;3.85;;;3.50;;
45578;SDS011;31293;51.390;12.254;2023-08-31T05:51:27;7.13;;;4.18;;
45578;SDS011;31293;51.390;12.254;2023-08-31T05:53:29;5.93;;;5.25;;
45578;SDS011;31293;51.390;12.254;2023-08-31T05:55:32;8.25;;;4.65;;
45578;SDS011;31293;51.390;12.254;2023-08-31T05:57:36;4.97;;;3.90;;
45578;SDS011;31293;51.390;12.254;2023-08-31T05:59:39;6.97;;;4.47;;
45578;SDS011;31293;51.390;12.254;2023-08-31T06:01:40;5.38;;;4.88;;
45578;SDS011;31293;51.390;12.254;2023-08-31T06:03:43;5.28;;;4.60;;
45578;SDS011;31293;51.390;12.254;2023-08-31T06:05:45;4.50;;;4.10;;
45578;SDS011;31293;51.390;12.254;2023-08-31T06:07:46;6.25;;;4.78;;
45578;SDS011;31293;51.390;12.254;2023-08-31T06:09:48;5.85;;;5.05;;
45578;SDS011;31293;51.390;12.254;2023-08-31T06:11:50;6.45;;;4.68;;
45578;SDS011;31293;51.390;12.254;2023-08-31T06:13:52;10.18;;;6.25;;
45578;SDS011;31293;51.390;12.254;2023-08-31T06:15:54;5.00;;;3.72;;
45578;SDS011;31293;51.390;12.254;2023-08-31T06:17:57;4.55;;;4.13;;
45578;SDS011;31293;51.390;12.254;2023-08-31T06:20:01;4.43;;;4.13;;
45578;SDS011;31293;51.390;12.254;2023-08-31T06:22:03;4.05;;;3.45;;
45578;SDS011;31293;51.390;12.254;2023-08-31T06:24:05;6.43;;;4.35;;
45578;SDS011;31293;51.390;12.254;2023-08-31T06:26:10;5.93;;;3.90;;
45578;SDS011;31293;51.390;12.254;2023-08-31T06:28:14;9.52;;;5.00;;
45578;SDS011;31293;51.390;12.254;2023-08-31T06:30:16;5.40;;;4.55;;
45578;SDS011;31293;51.390;12.254;2023-08-31T06:32:18;3.65;;;2.88;;
45578;SDS011;31293;51.390;12.254;2023-08-31T06:34:20;4.20;;;3.13;;
45578;SDS011;31293;51.390;12.254;2023-08-31T06:36:23;6.03;;;3.83;;
45578;SDS011;31293;51.390;12.254;2023-08-31T06:38:25;3.33;;;3.03;;
45578;SDS011;31293;51.390;12.254;2023-08-31T06:40:27;5.03;;;3.33;;
45578;SDS011;31293;51.390;12.254;2023-08-31T06:42:28;5.25;;;2.95;;
45578;SDS011;31293;51.390;12.254;2023-08-31T06:44:30;3.67;;;2.58;;
45578;SDS011;31293;51.390;12.254;2023-08-31T06:46:32;3.63;;;3.30;;
45578;SDS011;31293;51.390;12.254;2023-08-31T06:48:39;5.55;;;3.53;;
45578;SDS011;31293;51.390;12.254;2023-08-31T06:50:40;6.35;;;3.03;;
45578;SDS011;31293;51.390;12.254;2023-08-31T06:52:42;3.72;;;2.22;;
45578;SDS011;31293;51.390;12.254;2023-08-31T06:54:45;4.28;;;2.63;;
45578;SDS011;31293;51.390;12.254;2023-08-31T06:56:47;4.07;;;2.33;;
45578;SDS011;31293;51.390;12.254;2023-08-31T06:58:49;3.75;;;2.75;;
45578;SDS011;31293;51.390;12.254;2023-08-31T07:00:50;4.47;;;2.20;;
45578;SDS011;31293;51.390;12.254;2023-08-31T07:02:52;4.90;;;3.03;;
45578;SDS011;31293;51.390;12.254;2023-08-31T07:04:55;5.82;;;2.60;;
45578;SDS011;31293;51.390;12.254;2023-08-31T07:06:56;6.30;;;2.88;;
45578;SDS011;31293;51.390;12.254;2023-08-31T07:09:00;3.35;;;2.00;;
45578;SDS011;31293;51.390;12.254;2023-08-31T07:11:01;2.70;;;2.15;;
45578;SDS011;31293;51.390;12.254;2023-08-31T07:13:03;4.60;;;2.10;;
45578;SDS011;31293;51.390;12.254;2023-08-31T07:15:06;3.35;;;2.53;;
45578;SDS011;31293;51.390;12.254;2023-08-31T07:17:08;3.72;;;2.33;;
45578;SDS011;31293;51.390;12.254;2023-08-31T07:19:10;6.18;;;2.85;;
45578;SDS011;31293;51.390;12.254;2023-08-31T07:21:12;2.00;;;1.48;;
45578;SDS011;31293;51.390;12.254;2023-08-31T07:23:15;9.38;;;2.40;;
45578;SDS011;31293;51.390;12.254;2023-08-31T07:25:16;2.97;;;2.47;;
45578;SDS011;31293;51.390;12.254;2023-08-31T07:27:18;3.60;;;2.08;;
45578;SDS011;31293;51.390;12.254;2023-08-31T07:29:20;2.42;;;1.60;;
45578;SDS011;31293;51.390;12.254;2023-08-31T07:31:22;2.55;;;1.63;;
45578;SDS011;31293;51.390;12.254;2023-08-31T07:33:24;4.15;;;2.55;;
45578;SDS011;31293;51.390;12.254;2023-08-31T07:35:31;4.07;;;1.80;;
45578;SDS011;31293;51.390;12.254;2023-08-31T07:37:33;2.47;;;1.70;;
45578;SDS011;31293;51.390;12.254;2023-08-31T07:39:35;2.75;;;1.42;;
45578;SDS011;31293;51.390;12.254;2023-08-31T07:41:38;3.97;;;1.67;;
45578;SDS011;31293;51.390;12.254;2023-08-31T07:43:40;1.85;;;1.20;;
45578;SDS011;31293;51.390;12.254;2023-08-31T07:45:58;1.50;;;1.13;;
45578;SDS011;31293;51.390;12.254;2023-08-31T07:48:00;1.80;;;1.30;;
45578;SDS011;31293;51.390;12.254;2023-08-31T07:50:02;5.68;;;1.60;;
45578;SDS011;31293;51.390;12.254;2023-08-31T07:52:04;1.65;;;1.35;;
45578;SDS011;31293;51.390;12.254;2023-08-31T07:54:06;2.85;;;1.35;;
45578;SDS011;31293;51.390;12.254;2023-08-31T07:56:08;5.05;;;1.80;;
45578;SDS011;31293;51.390;12.254;2023-08-31T07:58:10;2.50;;;1.35;;
45578;SDS011;31293;51.390;12.254;2023-08-31T08:00:12;4.45;;;2.33;;
45578;SDS011;31293;51.390;12.254;2023-08-31T08:02:16;3.50;;;1.52;;
45578;SDS011;31293;51.390;12.254;2023-08-31T08:04:18;2.40;;;1.77;;
45578;SDS011;31293;51.390;12.254;2023-08-31T08:06:20;3.78;;;1.20;;
45578;SDS011;31293;51.390;12.254;2023-08-31T08:08:22;4.53;;;1.75;;
45578;SDS011;31293;51.390;12.254;2023-08-31T08:10:24;2.97;;;1.48;;
45578;SDS011;31293;51.390;12.254;2023-08-31T08:12:26;3.08;;;1.75;;
45578;SDS011;31293;51.390;12.254;2023-08-31T08:14:28;3.15;;;1.30;;
45578;SDS011;31293;51.390;12.254;2023-08-31T08:16:30;3.92;;;1.45;;
45578;SDS011;31293;51.390;12.254;2023-08-31T08:18:32;7.13;;;1.65;;
45578;SDS011;31293;51.390;12.254;2023-08-31T08:20:34;2.20;;;1.50;;
45578;SDS011;31293;51.390;12.254;2023-08-31T08:22:36;3.40;;;1.88;;
45578;SDS011;31293;51.390;12.254;2023-08-31T08:24:39;5.85;;;1.88;;
45578;SDS011;31293;51.390;12.254;2023-08-31T08:26:43;3.95;;;2.50;;
45578;SDS011;31293;51.390;12.254;2023-08-31T08:28:45;6.85;;;2.58;;
45578;SDS011;31293;51.390;12.254;2023-08-31T08:30:47;12.93;;;2.90;;
45578;SDS011;31293;51.390;12.254;2023-08-31T08:32:49;4.50;;;2.15;;
45578;SDS011;31293;51.390;12.254;2023-08-31T08:34:52;3.33;;;2.70;;
45578;SDS011;31293;51.390;12.254;2023-08-31T08:36:53;2.95;;;2.60;;
45578;SDS011;31293;51.390;12.254;2023-08-31T08:38:55;5.55;;;2.88;;
45578;SDS011;31293;51.390;12.254;2023-08-31T08:40:57;3.83;;;2.65;;
45578;SDS011;31293;51.390;12.254;2023-08-31T08:43:06;3.63;;;2.38;;
45578;SDS011;31293;51.390;12.254;2023-08-31T08:45:13;4.32;;;2.35;;
45578;SDS011;31293;51.390;12.254;2023-08-31T08:47:19;6.78;;;2.88;;
45578;SDS011;31293;51.390;12.254;2023-08-31T08:49:21;7.60;;;2.88;;
45578;SDS011;31293;51.390;12.254;2023-08-31T08:51:26;2.42;;;2.22;;
45578;SDS011;31293;51.390;12.254;2023-08-31T08:55:30;2.50;;;1.98;;
45578;SDS011;31293;51.390;12.254;2023-08-31T08:57:33;4.82;;;2.47;;
45578;SDS011;31293;51.390;12.254;2023-08-31T08:59:36;3.20;;;2.00;;
45578;SDS011;31293;51.390;12.254;2023-08-31T09:01:37;6.70;;;1.92;;
45578;SDS011;31293;51.390;12.254;2023-08-31T09:03:40;5.03;;;1.42;;
45578;SDS011;31293;51.390;12.254;2023-08-31T09:05:42;4.45;;;1.48;;
45578;SDS011;31293;51.390;12.254;2023-08-31T09:10:11;4.03;;;1.83;;
45578;SDS011;31293;51.390;12.254;2023-08-31T09:12:13;3.20;;;1.52;;
45578;SDS011;31293;51.390;12.254;2023-08-31T09:16:23;6.30;;;1.92;;
45578;SDS011;31293;51.390;12.254;2023-08-31T09:18:31;4.57;;;1.98;;
45578;SDS011;31293;51.390;12.254;2023-08-31T09:20:46;4.88;;;2.30;;
45578;SDS011;31293;51.390;12.254;2023-08-31T09:22:48;5.28;;;2.08;;
45578;SDS011;31293;51.390;12.254;2023-08-31T09:26:57;3.35;;;1.60;;
45578;SDS011;31293;51.390;12.254;2023-08-31T09:28:59;4.95;;;1.60;;
45578;SDS011;31293;51.390;12.254;2023-08-31T09:31:05;2.42;;;1.27;;
45578;SDS011;31293;51.390;12.254;2023-08-31T09:33:15;5.43;;;1.40;;
45578;SDS011;31293;51.390;12.254;2023-08-31T09:35:18;2.17;;;0.90;;
45578;SDS011;31293;51.390;12.254;2023-08-31T09:37:23;2.20;;;0.80;;
45578;SDS011;31293;51.390;12.254;2023-08-31T09:39:25;4.13;;;0.77;;
45578;SDS011;31293;51.390;12.254;2023-08-31T09:41:56;3.13;;;0.90;;
45578;SDS011;31293;51.390;12.254;2023-08-31T09:44:14;2.53;;;0.55;;
45578;SDS011;31293;51.390;12.254;2023-08-31T09:46:19;0.63;;;0.40;;
45578;SDS011;31293;51.390;12.254;2023-08-31T09:48:22;1.33;;;0.50;;
45578;SDS011;31293;51.390;12.254;2023-08-31T09:50:25;3.45;;;0.50;;
45578;SDS011;31293;51.390;12.254;2023-08-31T09:52:27;1.25;;;0.40;;
45578;SDS011;31293;51.390;12.254;2023-08-31T09:54:29;2.20;;;0.45;;
45578;SDS011;31293;51.390;12.254;2023-08-31T09:56:33;2.28;;;0.50;;
45578;SDS011;31293;51.390;12.254;2023-08-31T09:58:35;4.32;;;0.50;;
45578;SDS011;31293;51.390;12.254;2023-08-31T10:00:38;1.45;;;0.60;;
45578;SDS011;31293;51.390;12.254;2023-08-31T10:02:40;0.90;;;0.50;;
45578;SDS011;31293;51.390;12.254;2023-08-31T10:04:42;3.55;;;0.50;;
45578;SDS011;31293;51.390;12.254;2023-08-31T10:06:44;2.67;;;1.20;;
45578;SDS011;31293;51.390;12.254;2023-08-31T10:08:46;5.85;;;1.10;;
45578;SDS011;31293;51.390;12.254;2023-08-31T10:10:49;2.92;;;0.80;;
45578;SDS011;31293;51.390;12.254;2023-08-31T10:12:51;2.15;;;0.77;;
45578;SDS011;31293;51.390;12.254;2023-08-31T10:14:54;4.45;;;1.10;;
45578;SDS011;31293;51.390;12.254;2023-08-31T10:16:57;3.28;;;1.10;;
45578;SDS011;31293;51.390;12.254;2023-08-31T10:18:59;1.65;;;1.10;;
45578;SDS011;31293;51.390;12.254;2023-08-31T10:21:02;1.55;;;0.82;;
45578;SDS011;31293;51.390;12.254;2023-08-31T10:23:05;1.73;;;0.88;;
45578;SDS011;31293;51.390;12.254;2023-08-31T10:25:08;2.60;;;1.33;;
45578;SDS011;31293;51.390;12.254;2023-08-31T10:27:17;4.18;;;1.15;;
45578;SDS011;31293;51.390;12.254;2023-08-31T10:29:26;2.38;;;1.50;;
45578;SDS011;31293;51.390;12.254;2023-08-31T10:31:32;2.75;;;1.40;;
45578;SDS011;31293;51.390;12.254;2023-08-31T10:33:39;1.40;;;0.85;;
45578;SDS011;31293;51.390;12.254;2023-08-31T10:35:50;2.03;;;1.20;;
45578;SDS011;31293;51.390;12.254;2023-08-31T10:38:09;1.98;;;0.68;;
45578;SDS011;31293;51.390;12.254;2023-08-31T10:40:32;0.85;;;0.50;;
45578;SDS011;31293;51.390;12.254;2023-08-31T10:42:41;4.32;;;0.95;;
45578;SDS011;31293;51.390;12.254;2023-08-31T10:44:46;0.98;;;0.50;;
45578;SDS011;31293;51.390;12.254;2023-08-31T10:46:51;3.90;;;0.77;;
